Time;durP1;ratioP1;P1;durP2;ratioP2;P2;SDS_P1;SDS_P2;PMS_P1;PMS_P2;Temp;Humidity;BMP_temperature;BMP_pressure;BME280_temperature;BME280_humidity;BME280_pressure;Samples;Min_cycle;Max_cycle;Signal;HPM_P1;HPM_P2
2021/09/04 00:00:09;;;;;;;8.00;6.30;;;;;;;7.85;80.42;97628.79;116266;1178;68419;-69
2021/09/04 00:02:58;;;;;;;9.00;6.10;;;;;;;7.75;81.43;97631.23;116335;1181;59540;-66
2021/09/04 00:05:29;;;;;;;8.50;6.40;;;;;;;7.71;80.04;97631.66;116368;1181;59483;-68
2021/09/04 00:07:58;;;;;;;9.90;7.70;;;;;;;7.65;80.85;97632.52;116273;1178;71401;-71
2021/09/04 00:10:29;;;;;;;9.00;7.50;;;;;;;7.60;81.01;97630.05;116285;1181;68663;-72
2021/09/04 00:12:58;;;;;;;10.90;7.80;;;;;;;7.55;81.35;97629.27;116305;1182;69089;-71
2021/09/04 00:15:29;;;;;;;12.30;9.20;;;;;;;7.50;82.62;97627.45;116237;1179;59974;-69
2021/09/04 00:17:59;;;;;;;12.90;8.10;;;;;;;7.44;82.97;97630.08;116343;1178;59486;-68
2021/09/04 00:20:29;;;;;;;18.00;11.10;;;;;;;7.39;83.56;97628.12;116288;1178;69545;-69
2021/09/04 00:22:59;;;;;;;;;;;;;;;7.34;84.60;97629.59;116160;1182;69013;-68
2021/09/04 00:25:29;;;;;;;10.80;7.20;;;;;;;7.40;82.33;97629.63;116228;1181;68654;-66
2021/09/04 00:27:59;;;;;;;11.60;8.20;;;;;;;7.45;82.17;97638.35;116186;1178;59582;-70
2021/09/04 00:30:28;;;;;;;12.90;8.90;;;;;;;7.49;82.44;97640.72;116351;1182;59557;-69
2021/09/04 00:32:58;;;;;;;11.20;9.20;;;;;;;7.46;82.99;97637.77;116322;1181;71343;-69
2021/09/04 00:35:27;;;;;;;5.50;4.20;;;;;;;7.41;81.83;97638.78;116316;1182;69013;-69
2021/09/04 00:37:56;;;;;;;10.10;6.20;;;;;;;7.37;80.98;97637.93;116251;1182;68411;-71
2021/09/04 00:40:26;;;;;;;8.70;6.50;;;;;;;7.32;80.76;97636.33;116337;1178;59508;-68
2021/09/04 00:42:56;;;;;;;10.30;7.40;;;;;;;7.26;80.94;97636.10;116354;1178;59559;-67
2021/09/04 00:45:26;;;;;;;9.30;6.20;;;;;;;7.23;81.46;97631.46;116364;1180;71342;-69
2021/09/04 00:47:58;;;;;;;10.10;7.60;;;;;;;7.21;82.05;97630.17;116376;1181;69160;-69
2021/09/04 00:50:31;;;;;;;8.70;5.70;;;;;;;7.20;82.53;97631.27;116397;1180;68329;-68
2021/09/04 00:53:01;;;;;;;10.00;6.70;;;;;;;7.19;81.17;97627.52;116264;1178;59514;-69
2021/09/04 00:55:31;;;;;;;;;;;;;;;7.19;81.66;97624.94;116306;1181;59519;-69
2021/09/04 00:58:01;;;;;;;11.60;8.50;;;;;;;7.18;81.23;97628.44;116187;1182;71927;-69
2021/09/04 01:00:32;;;;;;;6.60;4.20;;;;;;;7.18;81.14;97629.34;116319;1178;69822;-68
2021/09/04 01:03:02;;;;;;;11.10;6.40;;;;;;;7.17;80.67;97630.40;116332;1181;67677;-72
2021/09/04 01:05:32;;;;;;;7.90;5.90;;;;;;;7.15;80.90;97628.04;116312;1179;59551;-66
2021/09/04 01:08:04;;;;;;;11.60;8.90;;;;;;;7.14;81.34;97630.69;116500;1182;59498;-67
2021/09/04 01:10:35;;;;;;;11.40;7.50;;;;;;;7.13;82.35;97632.48;116381;1177;71345;-68
2021/09/04 01:13:04;;;;;;;;;;;;;;;7.13;82.51;97626.26;116381;1182;69152;-71
2021/09/04 01:15:36;;;;;;;7.00;4.30;;;;;;;7.12;81.70;97621.13;116319;1182;68297;-69
2021/09/04 01:18:06;;;;;;;11.00;7.20;;;;;;;7.11;82.01;97622.52;116375;1178;59486;-69
2021/09/04 01:20:35;;;;;;;12.80;7.90;;;;;;;7.08;83.63;97629.30;116432;1178;59534;-68
2021/09/04 01:23:05;;;;;;;9.30;7.10;;;;;;;7.05;82.80;97632.96;116324;1178;70373;-68
2021/09/04 01:25:38;;;;;;;8.10;6.40;;;;;;;7.03;82.19;97637.77;116366;1181;69117;-70
2021/09/04 01:28:09;;;;;;;10.00;6.70;;;;;;;7.01;82.45;97632.52;116217;1181;69211;-69
2021/09/04 01:30:39;;;;;;;10.30;7.70;;;;;;;7.00;83.35;97632.02;116193;1182;59565;-67
2021/09/04 01:33:10;;;;;;;;;;;;;;;6.99;83.95;97633.99;116227;1181;59556;-69
2021/09/04 01:35:40;;;;;;;11.90;7.70;;;;;;;6.98;82.89;97638.54;116422;1178;70494;-70
2021/09/04 01:38:12;;;;;;;12.60;9.20;;;;;;;6.97;84.76;97637.36;116294;1179;68403;-69
2021/09/04 01:40:44;;;;;;;8.80;6.30;;;;;;;6.96;85.79;97642.09;116325;1181;68451;-70
2021/09/04 01:43:13;;;;;;;12.40;8.50;;;;;;;6.96;85.00;97642.95;116362;1181;59530;-68
2021/09/04 01:45:43;;;;;;;12.00;9.40;;;;;;;6.97;84.64;97644.46;116305;1182;59568;-68
2021/09/04 01:48:13;;;;;;;13.00;9.60;;;;;;;6.97;85.20;97651.09;116139;1183;70663;-67
2021/09/04 01:50:43;;;;;;;6.90;4.70;;;;;;;6.93;83.41;97651.64;116279;1182;69034;-69
2021/09/04 01:53:13;;;;;;;;;;;;;;;6.88;82.10;97648.09;116264;1181;69181;-68
2021/09/04 01:55:43;;;;;;;;;;;;;;;6.82;82.43;97649.30;116186;1182;59530;-69
2021/09/04 01:58:13;;;;;;;12.30;7.00;;;;;;;6.77;82.17;97650.79;116233;1181;59575;-68
2021/09/04 02:00:44;;;;;;;10.40;7.40;;;;;;;6.74;82.48;97645.20;116285;1182;71220;-68
2021/09/04 02:03:14;;;;;;;9.90;7.00;;;;;;;6.73;82.87;97645.06;116486;1182;69159;-67
2021/09/04 02:05:45;;;;;;;12.10;8.60;;;;;;;6.73;82.66;97644.75;116208;1182;68412;-68
2021/09/04 02:08:15;;;;;;;9.70;5.30;;;;;;;6.73;82.25;97643.90;116221;1181;59460;-68
2021/09/04 02:10:46;;;;;;;10.60;7.10;;;;;;;6.74;80.54;97638.63;116206;1182;59511;-68
2021/09/04 02:13:15;;;;;;;;;;;;;;;6.75;83.16;97638.59;116135;1182;70430;-68
2021/09/04 02:15:47;;;;;;;12.20;7.90;;;;;;;6.73;84.25;97635.38;116202;1182;68947;-66
2021/09/04 02:18:20;;;;;;;14.30;9.90;;;;;;;6.74;83.80;97636.73;116341;1181;68263;-69
2021/09/04 02:20:50;;;;;;;6.50;4.70;;;;;;;6.74;83.77;97639.81;116258;1181;59546;-67
2021/09/04 02:23:21;;;;;;;7.60;5.10;;;;;;;6.76;82.08;97642.53;116441;1178;59509;-66
2021/09/04 02:25:54;;;;;;;9.10;6.10;;;;;;;6.77;81.69;97640.52;116314;1182;70535;-68
2021/09/04 02:28:24;;;;;;;14.50;10.10;;;;;;;6.78;81.48;97646.38;116285;1182;68290;-69
2021/09/04 02:30:57;;;;;;;14.50;9.10;;;;;;;6.71;84.03;97645.55;116594;1181;69547;-66
2021/09/04 02:33:27;;;;;;;7.30;5.50;;;;;;;6.66;83.33;97641.67;116232;1183;59557;-69
2021/09/04 02:35:57;;;;;;;10.60;7.90;;;;;;;6.63;82.53;97643.71;116295;1181;59540;-69
2021/09/04 02:38:27;;;;;;;6.40;4.60;;;;;;;6.62;82.84;97643.10;116427;1180;70414;-69
2021/09/04 02:40:56;;;;;;;11.20;8.60;;;;;;;6.63;81.47;97647.17;116446;1177;69117;-66
2021/09/04 02:43:29;;;;;;;9.70;6.80;;;;;;;6.60;83.28;97644.38;116509;1180;68415;-68
2021/09/04 02:45:59;;;;;;;10.90;7.30;;;;;;;6.60;82.30;97643.02;116409;1181;59518;-67
2021/09/04 02:48:29;;;;;;;12.30;8.50;;;;;;;6.59;82.23;97643.39;116432;1180;59483;-69
2021/09/04 02:51:00;;;;;;;9.40;6.90;;;;;;;6.60;82.93;97643.34;116418;1177;70549;-70
2021/09/04 02:53:31;;;;;;;17.10;10.80;;;;;;;6.60;82.43;97639.70;116386;1180;68411;-69
2021/09/04 02:56:02;;;;;;;12.30;8.40;;;;;;;6.60;83.91;97633.10;116175;1181;68260;-69
2021/09/04 02:58:33;;;;;;;10.10;7.50;;;;;;;6.60;83.56;97628.11;116305;1180;59568;-68
2021/09/04 03:01:03;;;;;;;14.10;8.30;;;;;;;6.60;82.83;97628.94;116255;1180;59489;-68
2021/09/04 03:03:34;;;;;;;6.70;4.50;;;;;;;6.60;82.90;97629.82;116459;1180;70357;-69
2021/09/04 03:06:05;;;;;;;8.90;6.00;;;;;;;6.62;81.46;97629.08;116368;1180;68161;-69
2021/09/04 03:08:37;;;;;;;12.20;8.30;;;;;;;6.61;82.55;97628.93;116422;1180;68358;-68
2021/09/04 03:11:06;;;;;;;8.30;5.90;;;;;;;6.59;82.23;97627.63;116174;1182;59529;-68
2021/09/04 03:13:37;;;;;;;8.60;5.90;;;;;;;6.58;82.53;97627.86;116327;1180;59505;-71
2021/09/04 03:16:08;;;;;;;10.30;7.40;;;;;;;6.56;82.75;97624.73;116390;1181;71328;-70
2021/09/04 03:18:38;;;;;;;;;;;;;;;6.52;84.32;97617.79;116367;1180;68449;-68
2021/09/04 03:21:09;;;;;;;8.10;6.00;;;;;;;6.50;84.80;97616.89;116421;1179;68263;-66
2021/09/04 03:23:40;;;;;;;9.10;5.30;;;;;;;6.48;83.24;97611.31;116329;1181;59536;-69
2021/09/04 03:26:09;;;;;;;11.60;7.60;;;;;;;6.47;82.94;97617.05;116221;1180;59546;-68
2021/09/04 03:28:40;;;;;;;10.40;7.00;;;;;;;6.44;83.44;97618.77;116176;1182;71165;-66
2021/09/04 03:31:15;;;;;;;13.10;8.70;;;;;;;6.41;83.31;97619.45;116246;1180;69170;-68
2021/09/04 03:33:45;;;;;;;10.00;6.90;;;;;;;6.37;84.44;97615.31;116235;1181;68242;-68
2021/09/04 03:36:15;;;;;;;;;;;;;;;6.35;85.21;97612.67;116258;1179;59541;-67
2021/09/04 03:38:46;;;;;;;13.10;8.50;;;;;;;6.31;86.43;97608.38;116200;1180;59549;-70
2021/09/04 03:41:17;;;;;;;8.80;5.20;;;;;;;6.29;86.58;97603.48;116459;1180;71197;-68
2021/09/04 03:43:47;;;;;;;7.70;5.50;;;;;;;6.30;84.13;97602.20;116296;1183;69385;-69
2021/09/04 03:46:17;;;;;;;9.40;5.70;;;;;;;6.33;83.17;97601.49;116207;1178;69009;-68
2021/09/04 03:48:46;;;;;;;;;;;;;;;6.34;83.07;97604.55;116285;1182;59884;-69
2021/09/04 03:51:17;;;;;;;;;;;;;;;6.35;83.46;97605.72;116572;1181;59480;-68
2021/09/04 03:53:47;;;;;;;10.30;6.90;;;;;;;6.34;84.71;97605.27;116402;1181;70543;-65
2021/09/04 03:56:17;;;;;;;5.80;3.70;;;;;;;6.31;84.28;97604.36;116516;1181;69071;-67
2021/09/04 03:58:48;;;;;;;12.00;8.80;;;;;;;6.31;83.51;97609.42;116310;1182;67478;-67
2021/09/04 04:01:18;;;;;;;15.70;9.80;;;;;;;6.28;84.85;97604.72;116233;1181;59550;-67
2021/09/04 04:03:48;;;;;;;9.20;5.60;;;;;;;6.26;85.11;97604.31;116259;1182;59469;-67
2021/09/04 04:06:18;;;;;;;;;;;;;;;6.26;83.66;97604.50;116171;1182;70380;-68
2021/09/04 04:08:49;;;;;;;7.10;4.40;;;;;;;6.27;84.53;97607.55;116322;1181;68563;-70
2021/09/04 04:11:19;;;;;;;13.70;8.80;;;;;;;6.29;83.88;97608.63;116261;1182;69408;-68
2021/09/04 04:13:49;;;;;;;9.00;5.90;;;;;;;6.33;84.04;97608.79;116238;1181;59538;-67
2021/09/04 04:16:20;;;;;;;10.60;8.20;;;;;;;6.36;84.12;97604.63;116281;1181;59511;-68
2021/09/04 04:18:51;;;;;;;15.30;10.60;;;;;;;6.45;84.73;97603.14;116279;1182;71150;-66
2021/09/04 04:21:20;;;;;;;12.80;8.80;;;;;;;6.56;85.84;97602.17;116235;1181;68499;-68
2021/09/04 04:23:50;;;;;;;11.90;7.20;;;;;;;6.71;85.58;97601.20;116214;1177;68499;-67
2021/09/04 04:26:20;;;;;;;;;;;;;;;6.91;84.56;97605.85;116220;1182;59617;-68
2021/09/04 04:28:50;;;;;;;10.20;6.60;;;;;;;7.14;84.02;97608.73;116263;1181;59568;-68
2021/09/04 04:31:20;;;;;;;8.90;6.10;;;;;;;7.40;83.83;97603.63;116340;1181;71173;-69
2021/09/04 04:33:51;;;;;;;10.90;7.20;;;;;;;7.70;83.53;97601.20;116391;1181;69249;-66
2021/09/04 04:36:21;;;;;;;6.60;4.60;;;;;;;7.97;83.28;97601.83;116261;1182;68834;-67
2021/09/04 04:38:50;;;;;;;14.50;8.80;;;;;;;8.23;82.45;97603.44;116257;1182;59610;-68
2021/09/04 04:41:20;;;;;;;8.50;6.10;;;;;;;8.39;80.70;97600.58;116245;1181;59466;-66
2021/09/04 04:43:49;;;;;;;8.20;5.10;;;;;;;8.62;81.45;97596.88;116235;1181;70545;-68
2021/09/04 04:46:19;;;;;;;8.80;6.40;;;;;;;8.92;80.66;97597.27;116211;1182;68239;-68
2021/09/04 04:48:49;;;;;;;9.30;7.30;;;;;;;9.24;80.12;97594.91;116106;1181;69321;-69
2021/09/04 04:51:18;;;;;;;7.60;5.30;;;;;;;9.56;79.75;97594.75;116130;1181;59544;-68
2021/09/04 04:53:50;;;;;;;8.00;5.90;;;;;;;9.89;78.80;97592.91;116190;1180;59528;-68
2021/09/04 04:56:20;;;;;;;6.80;5.30;;;;;;;10.20;78.78;97593.41;116243;1178;69572;-67
2021/09/04 04:58:53;;;;;;;7.70;5.70;;;;;;;10.41;75.99;97598.28;116252;1181;68456;-68
2021/09/04 05:01:23;;;;;;;8.80;6.80;;;;;;;10.70;77.51;97603.20;116202;1182;69166;-71
2021/09/04 05:03:53;;;;;;;7.90;5.90;;;;;;;10.99;75.03;97609.00;116406;1178;59506;-67
2021/09/04 05:06:22;;;;;;;11.00;8.10;;;;;;;11.12;70.76;97606.35;116237;1178;59607;-65
2021/09/04 05:08:51;;;;;;;10.20;6.90;;;;;;;10.96;70.35;97613.42;116257;1182;71473;-68
2021/09/04 05:11:23;;;;;;;10.00;6.60;;;;;;;11.09;70.08;97614.04;116409;1181;69216;-66
2021/09/04 05:13:52;;;;;;;8.20;5.60;;;;;;;11.30;70.83;97614.42;116305;1178;69324;-69
2021/09/04 05:16:22;;;;;;;6.90;5.10;;;;;;;11.66;71.47;97607.30;116308;1180;59521;-68
2021/09/04 05:18:52;;;;;;;7.20;5.30;;;;;;;11.90;70.47;97609.53;116368;1181;59545;-66
2021/09/04 05:21:22;;;;;;;6.80;4.90;;;;;;;12.10;71.07;97603.30;116250;1181;70529;-68
2021/09/04 05:23:53;;;;;;;7.20;4.50;;;;;;;12.49;71.86;97606.73;116359;1182;69306;-68
2021/09/04 05:26:22;;;;;;;5.70;4.30;;;;;;;12.91;69.98;97606.98;116322;1178;67848;-69
2021/09/04 05:28:52;;;;;;;9.70;5.40;;;;;;;13.37;69.85;97604.59;116391;1180;59546;-67
2021/09/04 05:31:21;;;;;;;8.40;5.10;;;;;;;13.82;65.25;97602.09;116248;1182;59534;-67
2021/09/04 05:33:50;;;;;;;7.20;5.00;;;;;;;14.17;65.51;97599.66;116144;1181;70445;-70
2021/09/04 05:36:20;;;;;;;6.60;5.80;;;;;;;14.46;64.66;97606.52;116376;1180;68934;-66
2021/09/04 05:38:49;;;;;;;12.50;7.20;;;;;;;14.69;62.04;97608.55;116178;1182;68336;-66
2021/09/04 05:41:19;;;;;;;9.30;6.80;;;;;;;14.73;60.49;97605.77;116199;1181;59514;-68
2021/09/04 05:43:48;;;;;;;8.00;6.40;;;;;;;15.02;61.09;97607.48;116128;1182;59581;-68
2021/09/04 05:46:18;;;;;;;9.20;7.40;;;;;;;15.31;59.66;97607.35;116247;1182;71513;-69
2021/09/04 05:48:47;;;;;;;10.70;7.40;;;;;;;15.55;58.48;97607.52;116317;1181;69122;-68
2021/09/04 05:51:17;;;;;;;8.20;6.40;;;;;;;15.60;57.88;97608.44;116243;1182;68581;-68
2021/09/04 05:53:46;;;;;;;10.80;7.10;;;;;;;15.63;57.82;97610.12;116366;1182;59548;-68
2021/09/04 05:56:15;;;;;;;9.00;6.20;;;;;;;15.73;57.82;97608.85;116248;1182;59522;-66
2021/09/04 05:58:45;;;;;;;9.50;6.30;;;;;;;15.84;57.18;97610.15;116380;1178;70405;-66
2021/09/04 06:01:13;;;;;;;8.50;6.10;;;;;;;15.83;56.92;97610.99;116229;1181;68503;-67
2021/09/04 06:03:43;;;;;;;6.90;4.50;;;;;;;16.20;57.35;97613.36;116249;1182;69214;-66
2021/09/04 06:06:13;;;;;;;5.80;5.00;;;;;;;16.73;55.99;97613.70;116304;1179;59949;-66
2021/09/04 06:08:42;;;;;;;8.60;6.10;;;;;;;17.00;54.72;97619.46;116239;1182;59540;-67
2021/09/04 06:11:12;;;;;;;11.10;6.30;;;;;;;17.13;55.15;97619.91;116226;1181;70391;-68
2021/09/04 06:13:41;;;;;;;6.70;4.80;;;;;;;17.26;54.09;97619.59;116297;1182;68435;-66
2021/09/04 06:16:10;;;;;;;9.50;5.20;;;;;;;18.13;53.90;97613.31;116218;1181;68404;-68
2021/09/04 06:18:39;;;;;;;6.40;3.80;;;;;;;18.54;51.95;97619.92;116214;1183;59549;-67
2021/09/04 06:21:09;;;;;;;6.00;4.40;;;;;;;18.70;50.32;97623.40;116144;1183;59508;-65
2021/09/04 06:23:38;;;;;;;7.50;4.50;;;;;;;18.63;49.99;97620.73;116232;1181;71260;-66
2021/09/04 06:26:08;;;;;;;5.90;4.10;;;;;;;18.75;51.07;97619.52;116253;1181;69206;-65
2021/09/04 06:28:37;;;;;;;5.70;4.40;;;;;;;19.21;48.85;97619.66;116317;1179;69283;-68
2021/09/04 06:31:07;;;;;;;6.20;4.20;;;;;;;19.56;49.36;97621.35;116308;1178;59616;-67
2021/09/04 06:33:36;;;;;;;8.50;5.60;;;;;;;19.97;47.02;97623.11;116273;1178;59586;-67
2021/09/04 06:36:05;;;;;;;6.50;4.50;;;;;;;18.79;48.33;97624.20;116325;1182;71153;-68
2021/09/04 06:38:33;;;;;;;6.80;5.30;;;;;;;18.70;49.32;97627.40;116280;1179;69842;-68
2021/09/04 06:41:03;;;;;;;5.90;4.80;;;;;;;18.69;50.01;97629.14;116295;1178;69015;-67
2021/09/04 06:43:32;;;;;;;6.80;5.60;;;;;;;18.36;50.79;97625.77;116321;1182;59929;-67
2021/09/04 06:46:01;;;;;;;8.10;5.70;;;;;;;18.12;51.29;97625.21;116347;1182;59562;-68
2021/09/04 06:48:30;;;;;;;7.10;4.60;;;;;;;18.47;50.40;97624.33;116313;1182;71207;-67
2021/09/04 06:50:59;;;;;;;4.60;3.80;;;;;;;19.17;50.33;97629.47;116383;1177;68785;-68
2021/09/04 06:53:28;;;;;;;6.20;4.60;;;;;;;19.84;48.77;97632.13;116311;1182;68462;-66
2021/09/04 06:55:57;;;;;;;9.30;5.80;;;;;;;20.54;47.34;97630.92;116217;1181;59508;-69
2021/09/04 06:58:26;;;;;;;7.40;5.20;;;;;;;20.64;46.30;97630.69;116212;1181;59534;-70
2021/09/04 07:01:00;;;;;;;5.60;4.30;;;;;;;20.66;46.06;97634.71;116487;1180;71174;-69
2021/09/04 07:03:30;;;;;;;7.30;5.50;;;;;;;21.35;46.41;97635.88;116364;1182;68604;-69
2021/09/04 07:05:59;;;;;;;7.80;4.80;;;;;;;20.75;45.55;97634.71;116323;1182;69197;-69
2021/09/04 07:08:28;;;;;;;7.20;6.00;;;;;;;21.63;44.62;97639.06;116227;1182;59580;-69
2021/09/04 07:10:57;;;;;;;6.80;6.10;;;;;;;21.15;43.62;97635.08;116350;1179;59467;-69
2021/09/04 07:13:26;;;;;;;7.10;5.50;;;;;;;21.17;44.47;97634.40;116335;1182;71581;-68
2021/09/04 07:15:56;;;;;;;7.40;5.60;;;;;;;20.80;44.96;97634.73;116324;1182;69381;-68
2021/09/04 07:18:25;;;;;;;6.00;4.30;;;;;;;20.68;45.73;97636.27;116429;1182;67889;-67
2021/09/04 07:20:54;;;;;;;7.10;5.60;;;;;;;21.46;43.95;97637.08;116316;1182;59983;-69
2021/09/04 07:23:23;;;;;;;5.50;4.10;;;;;;;21.37;43.85;97637.38;116324;1178;59541;-71
2021/09/04 07:25:52;;;;;;;5.60;3.90;;;;;;;21.99;43.76;97640.05;116364;1178;70607;-71
2021/09/04 07:28:21;;;;;;;5.50;3.90;;;;;;;22.28;42.18;97644.15;116280;1178;68256;-68
2021/09/04 07:30:50;;;;;;;4.90;3.80;;;;;;;22.63;42.93;97644.46;116298;1182;69035;-68
2021/09/04 07:33:19;;;;;;;7.80;5.00;;;;;;;23.11;41.35;97645.86;116319;1177;59547;-67
2021/09/04 07:35:48;;;;;;;;;;;;;;;23.31;39.74;97646.93;116401;1181;59539;-69
2021/09/04 07:38:17;;;;;;;5.70;5.00;;;;;;;23.37;39.73;97643.95;116393;1182;71335;-69
2021/09/04 07:40:46;;;;;;;7.00;5.30;;;;;;;22.20;40.79;97639.88;116293;1182;69281;-68
2021/09/04 07:43:15;;;;;;;5.70;4.00;;;;;;;22.20;41.72;97642.20;116362;1178;68354;-70
2021/09/04 07:45:44;;;;;;;5.90;5.00;;;;;;;21.98;42.14;97646.52;116362;1182;59549;-70
2021/09/04 07:48:13;;;;;;;6.90;5.10;;;;;;;21.56;43.40;97645.80;116511;1181;59539;-71
2021/09/04 07:50:42;;;;;;;8.80;7.20;;;;;;;21.66;43.29;97646.34;116372;1179;70606;-73
2021/09/04 07:53:11;;;;;;;10.20;7.70;;;;;;;20.69;45.11;97651.61;116309;1183;68468;-71
2021/09/04 07:55:40;;;;;;;8.90;7.10;;;;;;;20.34;46.44;97652.77;116360;1182;68506;-69
2021/09/04 07:58:09;;;;;;;9.90;7.70;;;;;;;20.27;46.69;97656.09;116483;1176;59979;-70
2021/09/04 08:00:38;;;;;;;8.90;6.70;;;;;;;20.36;46.53;97652.84;116264;1181;59605;-66
2021/09/04 08:03:08;;;;;;;10.00;8.40;;;;;;;20.82;46.22;97654.56;116391;1182;71549;-67
2021/09/04 08:05:38;;;;;;;8.00;6.10;;;;;;;20.97;46.43;97656.83;116367;1181;69155;-68
2021/09/04 08:08:07;;;;;;;9.40;7.80;;;;;;;21.45;44.81;97658.83;116342;1181;69335;-68
2021/09/04 08:10:38;;;;;;;9.70;7.80;;;;;;;20.87;45.01;97655.23;116313;1181;59536;-69
2021/09/04 08:13:07;;;;;;;8.50;6.10;;;;;;;20.75;45.91;97653.33;116339;1181;59541;-69
2021/09/04 08:15:38;;;;;;;7.40;5.50;;;;;;;20.75;46.15;97649.10;116336;1182;70467;-70
2021/09/04 08:18:07;;;;;;;7.70;5.60;;;;;;;21.65;44.26;97648.45;116394;1182;68443;-71
2021/09/04 08:20:36;;;;;;;8.30;6.40;;;;;;;22.19;42.16;97646.44;116342;1181;69204;-71
2021/09/04 08:23:07;;;;;;;8.20;6.00;;;;;;;22.76;41.63;97648.58;116316;1179;59585;-69
2021/09/04 08:25:37;;;;;;;6.40;5.40;;;;;;;23.31;40.27;97650.34;116313;1178;59549;-67
2021/09/04 08:28:08;;;;;;;7.30;5.90;;;;;;;23.46;39.30;97648.85;116329;1181;71425;-66
2021/09/04 08:30:39;;;;;;;9.40;6.00;;;;;;;23.02;39.35;97643.34;116455;1181;69208;-69
2021/09/04 08:33:08;;;;;;;9.50;6.60;;;;;;;23.45;39.12;97642.56;116447;1182;69270;-68
2021/09/04 08:35:37;;;;;;;6.20;5.20;;;;;;;23.45;39.58;97642.35;116340;1182;59503;-67
2021/09/04 08:38:07;;;;;;;7.20;5.40;;;;;;;23.75;38.89;97642.16;116394;1178;59539;-69
2021/09/04 08:40:41;;;;;;;7.70;4.90;;;;;;;23.89;38.91;97641.00;116289;1182;70520;-67
2021/09/04 08:43:11;;;;;;;7.80;6.30;;;;;;;23.83;37.97;97642.75;116400;1179;69203;-67
2021/09/04 08:45:45;;;;;;;8.90;7.20;;;;;;;24.20;37.56;97639.00;116326;1182;67466;-71
2021/09/04 08:48:14;;;;;;;6.30;4.70;;;;;;;22.82;38.82;97636.23;116343;1179;59536;-69
2021/09/04 08:50:43;;;;;;;6.80;4.50;;;;;;;23.50;38.71;97634.07;116246;1178;59492;-72
2021/09/04 08:53:12;;;;;;;6.60;4.60;;;;;;;24.00;37.93;97633.84;116552;1180;70625;-66
2021/09/04 08:55:41;;;;;;;;;;;;;;;23.71;37.62;97634.98;116397;1182;69169;-69
2021/09/04 08:58:10;;;;;;;12.10;9.70;;;;;;;23.43;37.65;97632.10;116362;1182;68678;-73
2021/09/04 09:00:42;;;;;;;7.30;5.50;;;;;;;23.82;37.72;97635.39;116429;1182;59480;-70
2021/09/04 09:03:24;;;;;;;7.90;6.90;;;;;;;24.58;36.16;97630.79;116337;1181;59553;-70
2021/09/04 09:05:58;;;;;;;8.60;7.00;;;;;;;24.70;35.98;97624.88;116464;1182;71383;-67
2021/09/04 09:08:28;;;;;;;9.00;6.30;;;;;;;24.29;35.96;97625.38;116388;1179;67384;-67
2021/09/04 09:11:02;;;;;;;9.80;8.00;;;;;;;25.01;35.74;97625.66;116481;1182;69202;-67
2021/09/04 09:13:31;;;;;;;14.80;11.10;;;;;;;24.96;34.37;97623.33;116519;1178;59615;-68
2021/09/04 09:16:01;;;;;;;9.80;8.30;;;;;;;23.30;36.95;97623.80;116533;1181;59538;-69
2021/09/04 09:18:30;;;;;;;7.30;6.60;;;;;;;23.11;37.41;97617.14;116580;1182;71200;-71
2021/09/04 09:21:01;;;;;;;12.60;10.50;;;;;;;24.20;36.66;97615.98;116570;1179;69373;-68
2021/09/04 09:23:31;;;;;;;16.80;14.90;;;;;;;24.25;35.68;97616.69;116598;1182;69212;-70
2021/09/04 09:26:09;;;;;;;8.10;6.70;;;;;;;24.13;36.34;97616.55;116510;1182;59532;-70
2021/09/04 09:28:38;;;;;;;9.00;7.70;;;;;;;25.00;34.66;97615.38;116586;1182;59501;-69
2021/09/04 09:31:07;;;;;;;;;;;;;;;25.60;33.99;97614.48;116557;1181;71747;-69
2021/09/04 09:33:36;;;;;;;5.90;4.90;;;;;;;26.42;33.56;97614.26;116570;1181;69932;-71
2021/09/04 09:36:05;;;;;;;11.80;9.20;;;;;;;27.27;32.21;97614.30;116553;1179;69241;-67
2021/09/04 09:38:34;;;;;;;9.90;7.20;;;;;;;27.67;30.94;97609.02;116256;1182;59559;-71
2021/09/04 09:41:05;;;;;;;;;;;;;;;28.13;31.14;97608.11;116459;1178;59494;-67
2021/09/04 09:43:37;;;;;;;6.10;4.50;;;;;;;28.58;29.47;97604.84;116569;1181;70548;-71
2021/09/04 09:46:07;;;;;;;6.70;5.40;;;;;;;28.33;28.86;97603.06;116552;1182;69156;-69
2021/09/04 09:48:39;;;;;;;6.20;4.80;;;;;;;28.45;30.20;97597.33;116473;1182;68749;-71
2021/09/04 09:51:09;;;;;;;5.60;4.20;;;;;;;29.03;30.00;97595.95;116564;1181;59558;-68
2021/09/04 09:53:39;;;;;;;5.50;4.40;;;;;;;29.63;29.27;97596.14;116573;1182;59546;-70
2021/09/04 09:56:08;;;;;;;4.10;3.40;;;;;;;30.03;27.70;97593.52;116524;1182;70593;-70
2021/09/04 09:58:39;;;;;;;7.30;5.70;;;;;;;30.31;26.73;97591.53;116256;1182;68476;-68
2021/09/04 10:01:09;;;;;;;6.70;6.00;;;;;;;30.35;26.21;97586.59;116528;1182;69308;-70
2021/09/04 10:03:39;;;;;;;8.50;7.60;;;;;;;29.81;27.14;97580.17;116525;1179;59548;-70
2021/09/04 10:06:09;;;;;;;7.80;7.00;;;;;;;29.65;27.26;97575.98;116470;1182;59533;-70
2021/09/04 10:08:39;;;;;;;7.20;5.50;;;;;;;29.15;28.12;97575.42;116459;1182;70397;-68
2021/09/04 10:11:09;;;;;;;9.30;7.70;;;;;;;29.71;27.55;97574.46;116550;1182;69338;-71
2021/09/04 10:13:38;;;;;;;9.40;7.50;;;;;;;30.03;28.10;97573.41;116411;1182;68900;-72
2021/09/04 10:16:07;;;;;;;;;;;;;;;30.22;27.62;97573.70;116369;1182;59542;-72
2021/09/04 10:18:39;;;;;;;9.50;7.30;;;;;;;30.37;27.17;97569.77;116362;1182;59495;-72
2021/09/04 10:21:11;;;;;;;7.60;6.10;;;;;;;30.59;26.43;97564.68;116389;1178;71450;-70
2021/09/04 10:23:49;;;;;;;5.80;4.60;;;;;;;30.60;25.64;97560.80;116349;1182;69177;-71
2021/09/04 10:26:31;;;;;;;6.00;4.40;;;;;;;30.92;26.91;97564.13;116358;1182;68409;-70
2021/09/04 10:29:03;;;;;;;5.30;4.70;;;;;;;31.55;25.53;97564.20;116302;1182;59579;-67
2021/09/04 10:31:58;;;;;;;8.50;6.80;;;;;;;31.78;24.85;97568.23;116368;1178;59514;-71
2021/09/04 10:34:38;;;;;;;6.50;5.20;;;;;;;31.87;25.30;97565.77;116321;1182;71404;-68
2021/09/04 10:37:13;;;;;;;5.30;4.30;;;;;;;32.24;25.43;97557.30;116309;1179;69293;-70
2021/09/04 10:39:55;;;;;;;4.80;3.80;;;;;;;32.81;25.14;97554.58;116345;1177;69121;-71
2021/09/04 10:42:29;;;;;;;5.30;4.10;;;;;;;33.27;23.53;97552.23;116351;1182;59502;-71
2021/09/04 10:45:06;;;;;;;3.40;3.00;;;;;;;32.45;24.36;97552.91;116337;1182;59492;-71
2021/09/04 10:47:55;;;;;;;5.90;3.70;;;;;;;31.94;25.36;97555.30;116354;1178;71086;-71
2021/09/04 10:50:59;;;;;;;4.20;3.70;;;;;;;31.48;25.93;97555.05;116359;1182;68975;-67
2021/09/04 10:53:48;;;;;;;6.70;4.50;;;;;;;31.24;26.65;97549.13;116310;1179;69268;-70
2021/09/04 10:56:29;;;;;;;8.60;7.00;;;;;;;31.87;25.20;97552.95;116328;1178;59537;-68
2021/09/04 10:58:58;;;;;;;5.60;4.40;;;;;;;30.14;25.01;97548.71;116349;1182;59532;-67
2021/09/04 11:01:28;;;;;;;;;;;;;;;30.28;25.42;97552.41;116383;1181;70652;-69
2021/09/04 11:03:58;;;;;;;6.10;3.50;;;;;;;29.96;26.65;97552.70;116317;1182;69164;-69
2021/09/04 11:06:27;;;;;;;4.20;3.20;;;;;;;29.82;27.10;97553.64;116336;1182;69088;-72
2021/09/04 11:08:56;;;;;;;3.60;3.30;;;;;;;29.61;27.78;97551.80;116306;1182;59536;-72
2021/09/04 11:11:36;;;;;;;3.50;2.90;;;;;;;29.16;28.05;97547.95;116314;1181;59479;-73
2021/09/04 11:14:18;;;;;;;2.90;2.50;;;;;;;28.97;27.95;97550.48;116362;1183;71023;-75
2021/09/04 11:16:55;;;;;;;4.60;3.20;;;;;;;29.76;27.38;97553.95;116366;1181;69382;-70
2021/09/04 11:19:34;;;;;;;5.80;4.00;;;;;;;30.86;25.48;97552.73;116280;1182;68472;-70
2021/09/04 11:22:14;;;;;;;5.10;3.70;;;;;;;31.56;23.68;97547.42;116481;1182;59991;-69
2021/09/04 11:24:46;;;;;;;5.20;3.60;;;;;;;31.23;23.24;97548.93;116386;1182;59536;-68
2021/09/04 11:27:19;;;;;;;4.60;3.40;;;;;;;31.28;22.97;97548.52;116352;1182;71158;-67
2021/09/04 11:29:53;;;;;;;4.70;3.60;;;;;;;31.99;22.51;97548.97;116340;1181;68634;-71
2021/09/04 11:32:29;;;;;;;4.20;3.10;;;;;;;32.77;22.00;97538.34;116357;1182;68496;-68
2021/09/04 11:35:03;;;;;;;5.40;4.30;;;;;;;33.63;21.23;97543.10;116381;1182;59485;-71
2021/09/04 11:37:42;;;;;;;4.00;3.10;;;;;;;34.15;20.96;97538.74;116449;1182;59548;-67
2021/09/04 11:40:15;;;;;;;5.50;4.00;;;;;;;34.22;20.51;97543.52;116375;1182;71319;-71
2021/09/04 11:42:49;;;;;;;4.30;3.10;;;;;;;34.07;21.19;97548.63;116286;1182;68887;-71
2021/09/04 11:45:21;;;;;;;3.40;2.40;;;;;;;33.70;21.15;97544.67;116357;1182;69196;-69
2021/09/04 11:47:52;;;;;;;3.70;2.50;;;;;;;32.98;22.12;97544.30;116392;1182;59537;-72